sensor_id;sensor_type;location;lat;lon;timestamp;P1;durP1;ratioP1;P2;durP2;ratioP2
31818;SDS011;18384;48.860;9.188;2023-04-06T00:02:16;25.88;;;10.70;;
31818;SDS011;18384;48.860;9.188;2023-04-06T00:04:42;20.55;;;10.05;;
31818;SDS011;18384;48.860;9.188;2023-04-06T00:07:09;22.48;;;10.50;;
31818;SDS011;18384;48.860;9.188;2023-04-06T00:09:35;17.73;;;10.00;;
31818;SDS011;18384;48.860;9.188;2023-04-06T00:12:01;17.37;;;10.50;;
31818;SDS011;18384;48.860;9.188;2023-04-06T00:14:27;20.77;;;10.32;;
31818;SDS011;18384;48.860;9.188;2023-04-06T00:16:53;16.00;;;10.15;;
31818;SDS011;18384;48.860;9.188;2023-04-06T00:19:20;20.33;;;9.63;;
31818;SDS011;18384;48.860;9.188;2023-04-06T00:21:46;17.20;;;9.38;;
31818;SDS011;18384;48.860;9.188;2023-04-06T00:24:12;16.15;;;10.35;;
31818;SDS011;18384;48.860;9.188;2023-04-06T00:26:39;17.92;;;10.10;;
31818;SDS011;18384;48.860;9.188;2023-04-06T00:29:05;17.73;;;10.38;;
31818;SDS011;18384;48.860;9.188;2023-04-06T00:31:31;19.40;;;11.02;;
31818;SDS011;18384;48.860;9.188;2023-04-06T00:33:57;21.67;;;9.73;;
31818;SDS011;18384;48.860;9.188;2023-04-06T00:38:50;26.17;;;10.93;;
31818;SDS011;18384;48.860;9.188;2023-04-06T00:41:17;31.27;;;11.32;;
31818;SDS011;18384;48.860;9.188;2023-04-06T00:43:43;22.05;;;10.52;;
31818;SDS011;18384;48.860;9.188;2023-04-06T00:46:09;18.45;;;10.07;;
31818;SDS011;18384;48.860;9.188;2023-04-06T00:48:35;25.77;;;9.95;;
31818;SDS011;18384;48.860;9.188;2023-04-06T00:51:02;19.83;;;10.40;;
31818;SDS011;18384;48.860;9.188;2023-04-06T00:53:28;17.58;;;10.48;;
31818;SDS011;18384;48.860;9.188;2023-04-06T00:55:54;25.70;;;10.95;;
31818;SDS011;18384;48.860;9.188;2023-04-06T00:58:20;22.92;;;10.38;;
31818;SDS011;18384;48.860;9.188;2023-04-06T01:00:46;20.02;;;10.13;;
31818;SDS011;18384;48.860;9.188;2023-04-06T01:03:12;17.23;;;9.63;;
31818;SDS011;18384;48.860;9.188;2023-04-06T01:05:39;19.35;;;10.13;;
31818;SDS011;18384;48.860;9.188;2023-04-06T01:08:08;29.40;;;12.18;;
31818;SDS011;18384;48.860;9.188;2023-04-06T01:10:34;17.30;;;9.43;;
31818;SDS011;18384;48.860;9.188;2023-04-06T01:15:26;22.85;;;10.07;;
31818;SDS011;18384;48.860;9.188;2023-04-06T01:17:54;21.33;;;9.95;;
31818;SDS011;18384;48.860;9.188;2023-04-06T01:20:21;23.10;;;10.70;;
31818;SDS011;18384;48.860;9.188;2023-04-06T01:22:47;22.50;;;8.93;;
31818;SDS011;18384;48.860;9.188;2023-04-06T01:25:13;23.55;;;9.70;;
31818;SDS011;18384;48.860;9.188;2023-04-06T01:27:39;15.63;;;9.27;;
31818;SDS011;18384;48.860;9.188;2023-04-06T01:30:06;15.00;;;9.45;;
31818;SDS011;18384;48.860;9.188;2023-04-06T01:32:32;14.75;;;8.82;;
31818;SDS011;18384;48.860;9.188;2023-04-06T01:34:59;21.83;;;11.23;;
31818;SDS011;18384;48.860;9.188;2023-04-06T01:37:25;23.20;;;9.85;;
31818;SDS011;18384;48.860;9.188;2023-04-06T01:39:51;17.87;;;10.20;;
31818;SDS011;18384;48.860;9.188;2023-04-06T01:42:18;17.73;;;9.45;;
31818;SDS011;18384;48.860;9.188;2023-04-06T01:44:44;19.85;;;10.20;;
31818;SDS011;18384;48.860;9.188;2023-04-06T01:47:10;19.65;;;9.70;;
31818;SDS011;18384;48.860;9.188;2023-04-06T01:49:36;16.30;;;9.18;;
31818;SDS011;18384;48.860;9.188;2023-04-06T01:52:02;21.33;;;8.80;;
31818;SDS011;18384;48.860;9.188;2023-04-06T01:54:28;18.73;;;8.57;;
31818;SDS011;18384;48.860;9.188;2023-04-06T01:56:54;21.42;;;10.02;;
31818;SDS011;18384;48.860;9.188;2023-04-06T01:59:21;17.90;;;9.02;;
31818;SDS011;18384;48.860;9.188;2023-04-06T02:01:47;15.18;;;8.40;;
31818;SDS011;18384;48.860;9.188;2023-04-06T02:04:13;16.27;;;8.55;;
31818;SDS011;18384;48.860;9.188;2023-04-06T02:09:05;15.00;;;7.97;;
31818;SDS011;18384;48.860;9.188;2023-04-06T02:11:31;14.60;;;8.82;;
31818;SDS011;18384;48.860;9.188;2023-04-06T02:13:57;19.00;;;8.27;;
31818;SDS011;18384;48.860;9.188;2023-04-06T02:16:25;13.68;;;8.52;;
31818;SDS011;18384;48.860;9.188;2023-04-06T02:18:51;12.75;;;8.80;;
31818;SDS011;18384;48.860;9.188;2023-04-06T02:21:17;16.50;;;8.45;;
31818;SDS011;18384;48.860;9.188;2023-04-06T02:23:45;18.95;;;10.65;;
31818;SDS011;18384;48.860;9.188;2023-04-06T02:26:12;17.92;;;9.05;;
31818;SDS011;18384;48.860;9.188;2023-04-06T02:28:39;14.77;;;8.52;;
31818;SDS011;18384;48.860;9.188;2023-04-06T02:31:05;15.40;;;9.75;;
31818;SDS011;18384;48.860;9.188;2023-04-06T02:33:31;17.48;;;9.93;;
31818;SDS011;18384;48.860;9.188;2023-04-06T02:35:57;16.37;;;9.45;;
31818;SDS011;18384;48.860;9.188;2023-04-06T02:38:23;15.88;;;9.07;;
31818;SDS011;18384;48.860;9.188;2023-04-06T02:40:49;18.30;;;10.13;;
31818;SDS011;18384;48.860;9.188;2023-04-06T02:43:15;15.38;;;9.00;;
31818;SDS011;18384;48.860;9.188;2023-04-06T02:45:42;25.10;;;9.55;;
31818;SDS011;18384;48.860;9.188;2023-04-06T02:48:08;14.87;;;9.20;;
31818;SDS011;18384;48.860;9.188;2023-04-06T02:50:34;16.70;;;8.60;;
31818;SDS011;18384;48.860;9.188;2023-04-06T02:53:00;17.75;;;9.57;;
31818;SDS011;18384;48.860;9.188;2023-04-06T02:55:26;17.27;;;8.50;;
31818;SDS011;18384;48.860;9.188;2023-04-06T02:57:52;18.92;;;9.75;;
31818;SDS011;18384;48.860;9.188;2023-04-06T03:00:19;16.90;;;9.15;;
31818;SDS011;18384;48.860;9.188;2023-04-06T03:02:45;17.17;;;9.38;;
31818;SDS011;18384;48.860;9.188;2023-04-06T03:05:12;14.45;;;9.07;;
31818;SDS011;18384;48.860;9.188;2023-04-06T03:07:38;20.08;;;9.27;;
31818;SDS011;18384;48.860;9.188;2023-04-06T03:10:04;18.35;;;9.38;;
31818;SDS011;18384;48.860;9.188;2023-04-06T03:12:31;13.70;;;8.35;;
31818;SDS011;18384;48.860;9.188;2023-04-06T03:14:57;13.60;;;8.77;;
31818;SDS011;18384;48.860;9.188;2023-04-06T03:17:23;15.57;;;8.77;;
31818;SDS011;18384;48.860;9.188;2023-04-06T03:19:49;17.80;;;9.27;;
31818;SDS011;18384;48.860;9.188;2023-04-06T03:22:15;21.55;;;9.77;;
31818;SDS011;18384;48.860;9.188;2023-04-06T03:24:41;18.60;;;9.27;;
31818;SDS011;18384;48.860;9.188;2023-04-06T03:27:07;16.20;;;10.32;;
31818;SDS011;18384;48.860;9.188;2023-04-06T03:29:34;15.13;;;9.40;;
31818;SDS011;18384;48.860;9.188;2023-04-06T03:32:00;14.05;;;8.82;;
31818;SDS011;18384;48.860;9.188;2023-04-06T03:34:26;16.42;;;8.73;;
31818;SDS011;18384;48.860;9.188;2023-04-06T03:36:52;14.23;;;8.70;;
31818;SDS011;18384;48.860;9.188;2023-04-06T03:39:19;17.90;;;10.00;;
31818;SDS011;18384;48.860;9.188;2023-04-06T03:41:45;18.48;;;10.32;;
31818;SDS011;18384;48.860;9.188;2023-04-06T03:44:11;23.15;;;11.18;;
31818;SDS011;18384;48.860;9.188;2023-04-06T03:46:37;16.75;;;10.07;;
31818;SDS011;18384;48.860;9.188;2023-04-06T03:49:03;20.10;;;10.00;;
31818;SDS011;18384;48.860;9.188;2023-04-06T03:51:29;18.23;;;10.30;;
31818;SDS011;18384;48.860;9.188;2023-04-06T03:53:55;15.38;;;9.00;;
31818;SDS011;18384;48.860;9.188;2023-04-06T03:56:21;16.92;;;9.63;;
31818;SDS011;18384;48.860;9.188;2023-04-06T03:58:48;15.35;;;9.68;;
31818;SDS011;18384;48.860;9.188;2023-04-06T04:01:17;18.83;;;9.15;;
31818;SDS011;18384;48.860;9.188;2023-04-06T04:03:46;22.77;;;10.60;;
31818;SDS011;18384;48.860;9.188;2023-04-06T04:06:12;16.30;;;9.55;;
31818;SDS011;18384;48.860;9.188;2023-04-06T04:08:38;17.27;;;10.23;;
31818;SDS011;18384;48.860;9.188;2023-04-06T04:11:04;14.75;;;9.85;;
31818;SDS011;18384;48.860;9.188;2023-04-06T04:13:30;20.65;;;9.40;;
31818;SDS011;18384;48.860;9.188;2023-04-06T04:15:56;19.87;;;9.95;;
31818;SDS011;18384;48.860;9.188;2023-04-06T04:18:23;15.77;;;9.68;;
31818;SDS011;18384;48.860;9.188;2023-04-06T04:20:50;17.70;;;9.43;;
31818;SDS011;18384;48.860;9.188;2023-04-06T04:23:16;15.63;;;9.77;;
31818;SDS011;18384;48.860;9.188;2023-04-06T04:25:43;16.65;;;9.93;;
31818;SDS011;18384;48.860;9.188;2023-04-06T04:28:09;18.30;;;10.18;;
31818;SDS011;18384;48.860;9.188;2023-04-06T04:30:35;17.95;;;10.13;;
31818;SDS011;18384;48.860;9.188;2023-04-06T04:33:01;18.23;;;10.27;;
31818;SDS011;18384;48.860;9.188;2023-04-06T04:35:27;18.12;;;11.35;;
31818;SDS011;18384;48.860;9.188;2023-04-06T04:37:53;20.92;;;10.38;;
31818;SDS011;18384;48.860;9.188;2023-04-06T04:40:19;20.40;;;12.25;;
31818;SDS011;18384;48.860;9.188;2023-04-06T04:42:46;27.27;;;12.25;;
31818;SDS011;18384;48.860;9.188;2023-04-06T04:45:12;22.87;;;11.63;;
31818;SDS011;18384;48.860;9.188;2023-04-06T04:47:38;22.48;;;11.10;;
31818;SDS011;18384;48.860;9.188;2023-04-06T04:50:04;18.12;;;11.43;;
31818;SDS011;18384;48.860;9.188;2023-04-06T04:52:31;20.52;;;11.93;;
31818;SDS011;18384;48.860;9.188;2023-04-06T04:54:57;19.83;;;11.12;;
31818;SDS011;18384;48.860;9.188;2023-04-06T04:57:23;18.92;;;11.60;;
31818;SDS011;18384;48.860;9.188;2023-04-06T04:59:49;17.92;;;10.93;;
31818;SDS011;18384;48.860;9.188;2023-04-06T05:04:42;21.17;;;11.45;;
31818;SDS011;18384;48.860;9.188;2023-04-06T05:07:08;20.73;;;11.05;;
31818;SDS011;18384;48.860;9.188;2023-04-06T05:09:35;21.58;;;11.82;;
31818;SDS011;18384;48.860;9.188;2023-04-06T05:12:01;19.73;;;10.70;;
31818;SDS011;18384;48.860;9.188;2023-04-06T05:16:53;21.87;;;12.25;;
31818;SDS011;18384;48.860;9.188;2023-04-06T05:21:46;21.05;;;11.18;;
31818;SDS011;18384;48.860;9.188;2023-04-06T05:24:12;20.02;;;11.85;;
31818;SDS011;18384;48.860;9.188;2023-04-06T05:26:38;25.35;;;12.13;;
31818;SDS011;18384;48.860;9.188;2023-04-06T05:31:30;20.88;;;10.88;;
31818;SDS011;18384;48.860;9.188;2023-04-06T05:33:56;26.27;;;12.57;;
31818;SDS011;18384;48.860;9.188;2023-04-06T05:36:22;21.27;;;11.95;;
31818;SDS011;18384;48.860;9.188;2023-04-06T05:38:49;25.88;;;12.35;;
31818;SDS011;18384;48.860;9.188;2023-04-06T05:41:15;26.77;;;12.40;;
31818;SDS011;18384;48.860;9.188;2023-04-06T05:43:42;25.58;;;12.52;;
31818;SDS011;18384;48.860;9.188;2023-04-06T05:46:08;24.92;;;12.13;;
31818;SDS011;18384;48.860;9.188;2023-04-06T05:48:34;27.87;;;12.35;;
31818;SDS011;18384;48.860;9.188;2023-04-06T05:51:00;23.40;;;11.30;;
31818;SDS011;18384;48.860;9.188;2023-04-06T05:53:30;19.92;;;11.40;;
31818;SDS011;18384;48.860;9.188;2023-04-06T05:55:56;26.95;;;12.27;;
31818;SDS011;18384;48.860;9.188;2023-04-06T05:58:22;19.25;;;11.88;;
31818;SDS011;18384;48.860;9.188;2023-04-06T06:00:48;27.75;;;11.98;;
31818;SDS011;18384;48.860;9.188;2023-04-06T06:03:14;20.35;;;11.88;;
31818;SDS011;18384;48.860;9.188;2023-04-06T06:05:40;24.17;;;11.43;;
31818;SDS011;18384;48.860;9.188;2023-04-06T06:08:07;19.23;;;12.32;;
31818;SDS011;18384;48.860;9.188;2023-04-06T06:10:33;27.33;;;11.57;;
31818;SDS011;18384;48.860;9.188;2023-04-06T06:12:59;25.88;;;14.07;;
31818;SDS011;18384;48.860;9.188;2023-04-06T06:15:25;29.48;;;12.60;;
31818;SDS011;18384;48.860;9.188;2023-04-06T06:17:51;22.77;;;11.93;;
31818;SDS011;18384;48.860;9.188;2023-04-06T06:20:17;21.52;;;11.98;;
31818;SDS011;18384;48.860;9.188;2023-04-06T06:22:43;25.25;;;13.02;;
31818;SDS011;18384;48.860;9.188;2023-04-06T06:25:09;22.00;;;13.15;;
31818;SDS011;18384;48.860;9.188;2023-04-06T06:27:36;36.13;;;11.85;;
31818;SDS011;18384;48.860;9.188;2023-04-06T06:30:02;22.98;;;10.90;;
31818;SDS011;18384;48.860;9.188;2023-04-06T06:32:29;29.77;;;10.95;;
31818;SDS011;18384;48.860;9.188;2023-04-06T06:34:55;23.20;;;10.88;;
31818;SDS011;18384;48.860;9.188;2023-04-06T06:37:21;23.98;;;10.98;;
31818;SDS011;18384;48.860;9.188;2023-04-06T06:42:16;23.67;;;11.93;;
31818;SDS011;18384;48.860;9.188;2023-04-06T06:44:42;21.87;;;11.00;;
31818;SDS011;18384;48.860;9.188;2023-04-06T06:47:08;18.87;;;10.70;;
31818;SDS011;18384;48.860;9.188;2023-04-06T06:49:34;20.90;;;11.48;;
31818;SDS011;18384;48.860;9.188;2023-04-06T06:52:01;20.50;;;10.82;;
31818;SDS011;18384;48.860;9.188;2023-04-06T06:54:27;19.00;;;10.27;;
31818;SDS011;18384;48.860;9.188;2023-04-06T06:56:53;21.17;;;10.93;;
31818;SDS011;18384;48.860;9.188;2023-04-06T06:59:20;26.60;;;11.38;;
31818;SDS011;18384;48.860;9.188;2023-04-06T07:01:46;25.67;;;11.07;;
31818;SDS011;18384;48.860;9.188;2023-04-06T07:04:12;21.12;;;11.25;;
31818;SDS011;18384;48.860;9.188;2023-04-06T07:06:38;19.33;;;10.63;;
31818;SDS011;18384;48.860;9.188;2023-04-06T07:09:04;22.65;;;10.80;;
31818;SDS011;18384;48.860;9.188;2023-04-06T07:11:30;24.50;;;11.05;;
31818;SDS011;18384;48.860;9.188;2023-04-06T07:13:56;20.83;;;11.27;;
31818;SDS011;18384;48.860;9.188;2023-04-06T07:16:22;18.48;;;10.73;;
31818;SDS011;18384;48.860;9.188;2023-04-06T07:18:48;20.83;;;10.25;;
31818;SDS011;18384;48.860;9.188;2023-04-06T07:21:15;18.25;;;10.82;;
31818;SDS011;18384;48.860;9.188;2023-04-06T07:23:41;17.67;;;10.32;;
31818;SDS011;18384;48.860;9.188;2023-04-06T07:26:07;26.58;;;12.05;;
31818;SDS011;18384;48.860;9.188;2023-04-06T07:28:33;16.58;;;10.30;;
31818;SDS011;18384;48.860;9.188;2023-04-06T07:30:59;22.13;;;10.00;;
31818;SDS011;18384;48.860;9.188;2023-04-06T07:33:25;20.65;;;10.27;;
31818;SDS011;18384;48.860;9.188;2023-04-06T07:35:55;15.98;;;9.05;;
31818;SDS011;18384;48.860;9.188;2023-04-06T07:38:21;15.55;;;9.93;;
31818;SDS011;18384;48.860;9.188;2023-04-06T07:40:48;17.62;;;9.52;;
31818;SDS011;18384;48.860;9.188;2023-04-06T07:43:14;22.05;;;9.85;;
31818;SDS011;18384;48.860;9.188;2023-04-06T07:45:40;12.57;;;8.82;;
31818;SDS011;18384;48.860;9.188;2023-04-06T07:48:06;17.58;;;9.73;;
31818;SDS011;18384;48.860;9.188;2023-04-06T07:50:32;19.35;;;10.40;;
31818;SDS011;18384;48.860;9.188;2023-04-06T07:52:59;17.65;;;9.80;;
31818;SDS011;18384;48.860;9.188;2023-04-06T07:57:51;13.52;;;8.30;;
31818;SDS011;18384;48.860;9.188;2023-04-06T08:00:17;16.80;;;9.27;;
31818;SDS011;18384;48.860;9.188;2023-04-06T08:05:10;19.20;;;9.90;;
31818;SDS011;18384;48.860;9.188;2023-04-06T08:07:36;27.92;;;13.52;;
31818;SDS011;18384;48.860;9.188;2023-04-06T08:10:02;14.57;;;8.73;;
31818;SDS011;18384;48.860;9.188;2023-04-06T08:12:29;16.52;;;8.95;;
31818;SDS011;18384;48.860;9.188;2023-04-06T08:14:55;17.73;;;10.35;;
31818;SDS011;18384;48.860;9.188;2023-04-06T08:17:22;18.65;;;10.73;;
31818;SDS011;18384;48.860;9.188;2023-04-06T08:19:48;56.22;;;25.70;;
31818;SDS011;18384;48.860;9.188;2023-04-06T08:24:40;21.30;;;11.07;;
31818;SDS011;18384;48.860;9.188;2023-04-06T08:27:06;19.80;;;9.75;;
31818;SDS011;18384;48.860;9.188;2023-04-06T08:29:32;20.67;;;11.10;;
31818;SDS011;18384;48.860;9.188;2023-04-06T08:32:00;19.77;;;11.25;;
31818;SDS011;18384;48.860;9.188;2023-04-06T08:34:30;14.60;;;8.70;;
31818;SDS011;18384;48.860;9.188;2023-04-06T08:36:57;11.93;;;7.75;;
31818;SDS011;18384;48.860;9.188;2023-04-06T08:39:23;16.62;;;9.30;;
31818;SDS011;18384;48.860;9.188;2023-04-06T08:41:51;15.93;;;9.13;;
31818;SDS011;18384;48.860;9.188;2023-04-06T08:44:17;13.25;;;9.18;;
31818;SDS011;18384;48.860;9.188;2023-04-06T08:46:44;15.38;;;8.70;;
31818;SDS011;18384;48.860;9.188;2023-04-06T08:49:10;13.93;;;7.03;;
31818;SDS011;18384;48.860;9.188;2023-04-06T08:51:37;16.05;;;8.60;;
31818;SDS011;18384;48.860;9.188;2023-04-06T08:54:04;16.30;;;8.65;;
31818;SDS011;18384;48.860;9.188;2023-04-06T08:56:30;15.65;;;8.73;;
31818;SDS011;18384;48.860;9.188;2023-04-06T08:58:56;15.73;;;8.02;;
31818;SDS011;18384;48.860;9.188;2023-04-06T09:03:53;12.55;;;7.35;;
31818;SDS011;18384;48.860;9.188;2023-04-06T09:06:24;16.10;;;7.93;;
31818;SDS011;18384;48.860;9.188;2023-04-06T09:08:52;17.70;;;8.35;;
31818;SDS011;18384;48.860;9.188;2023-04-06T09:11:19;13.40;;;7.80;;
31818;SDS011;18384;48.860;9.188;2023-04-06T09:13:52;14.15;;;7.30;;
31818;SDS011;18384;48.860;9.188;2023-04-06T09:16:20;14.00;;;7.35;;
31818;SDS011;18384;48.860;9.188;2023-04-06T09:18:48;13.40;;;7.72;;
31818;SDS011;18384;48.860;9.188;2023-04-06T09:21:18;13.93;;;7.65;;
31818;SDS011;18384;48.860;9.188;2023-04-06T09:23:44;14.30;;;8.55;;
31818;SDS011;18384;48.860;9.188;2023-04-06T09:26:14;12.23;;;7.35;;
31818;SDS011;18384;48.860;9.188;2023-04-06T09:28:47;11.65;;;6.95;;
31818;SDS011;18384;48.860;9.188;2023-04-06T09:31:22;13.65;;;7.43;;
31818;SDS011;18384;48.860;9.188;2023-04-06T09:33:53;15.27;;;8.25;;
31818;SDS011;18384;48.860;9.188;2023-04-06T09:36:28;13.52;;;7.95;;
31818;SDS011;18384;48.860;9.188;2023-04-06T09:39:03;12.02;;;7.60;;
31818;SDS011;18384;48.860;9.188;2023-04-06T09:41:31;12.43;;;7.60;;
31818;SDS011;18384;48.860;9.188;2023-04-06T09:44:03;14.10;;;7.10;;
31818;SDS011;18384;48.860;9.188;2023-04-06T09:46:34;15.02;;;8.05;;
31818;SDS011;18384;48.860;9.188;2023-04-06T09:49:07;17.17;;;8.15;;
31818;SDS011;18384;48.860;9.188;2023-04-06T09:51:43;11.50;;;7.43;;
31818;SDS011;18384;48.860;9.188;2023-04-06T09:54:21;12.52;;;7.65;;
31818;SDS011;18384;48.860;9.188;2023-04-06T10:04:16;13.50;;;6.70;;
31818;SDS011;18384;48.860;9.188;2023-04-06T10:07:02;13.23;;;7.28;;
31818;SDS011;18384;48.860;9.188;2023-04-06T10:09:30;15.23;;;7.87;;
31818;SDS011;18384;48.860;9.188;2023-04-06T10:12:04;12.55;;;6.80;;
31818;SDS011;18384;48.860;9.188;2023-04-06T10:14:32;10.70;;;6.15;;
31818;SDS011;18384;48.860;9.188;2023-04-06T10:17:03;11.20;;;6.90;;
31818;SDS011;18384;48.860;9.188;2023-04-06T10:19:41;13.95;;;7.32;;
31818;SDS011;18384;48.860;9.188;2023-04-06T10:22:18;14.75;;;7.87;;
31818;SDS011;18384;48.860;9.188;2023-04-06T10:25:16;14.02;;;8.45;;
31818;SDS011;18384;48.860;9.188;2023-04-06T10:27:42;15.85;;;8.50;;
31818;SDS011;18384;48.860;9.188;2023-04-06T10:30:08;14.73;;;8.52;;
31818;SDS011;18384;48.860;9.188;2023-04-06T10:35:08;13.43;;;8.48;;
31818;SDS011;18384;48.860;9.188;2023-04-06T10:38:37;14.73;;;8.10;;
31818;SDS011;18384;48.860;9.188;2023-04-06T10:41:05;14.82;;;8.80;;
31818;SDS011;18384;48.860;9.188;2023-04-06T10:43:37;14.73;;;8.32;;
31818;SDS011;18384;48.860;9.188;2023-04-06T10:46:06;14.75;;;9.57;;
31818;SDS011;18384;48.860;9.188;2023-04-06T10:48:44;13.50;;;8.35;;
31818;SDS011;18384;48.860;9.188;2023-04-06T10:53:42;17.20;;;8.43;;
31818;SDS011;18384;48.860;9.188;2023-04-06T10:56:14;12.77;;;7.75;;
31818;SDS011;18384;48.860;9.188;2023-04-06T10:58:45;13.52;;;8.45;;
31818;SDS011;18384;48.860;9.188;2023-04-06T11:01:16;13.82;;;9.00;;
31818;SDS011;18384;48.860;9.188;2023-04-06T11:03:47;15.20;;;8.50;;
31818;SDS011;18384;48.860;9.188;2023-04-06T11:06:25;17.45;;;8.02;;
31818;SDS011;18384;48.860;9.188;2023-04-06T11:08:54;13.80;;;7.50;;
31818;SDS011;18384;48.860;9.188;2023-04-06T11:11:21;17.95;;;8.00;;
31818;SDS011;18384;48.860;9.188;2023-04-06T11:13:55;14.25;;;8.35;;
31818;SDS011;18384;48.860;9.188;2023-04-06T11:16:26;11.12;;;7.62;;
31818;SDS011;18384;48.860;9.188;2023-04-06T11:18:55;14.52;;;8.00;;
31818;SDS011;18384;48.860;9.188;2023-04-06T11:21:36;14.38;;;7.75;;
31818;SDS011;18384;48.860;9.188;2023-04-06T11:24:18;14.63;;;7.97;;
31818;SDS011;18384;48.860;9.188;2023-04-06T11:26:53;15.00;;;7.93;;
31818;SDS011;18384;48.860;9.188;2023-04-06T11:29:22;12.07;;;7.47;;
31818;SDS011;18384;48.860;9.188;2023-04-06T11:31:52;15.25;;;8.20;;
31818;SDS011;18384;48.860;9.188;2023-04-06T11:34:30;15.25;;;7.60;;
31818;SDS011;18384;48.860;9.188;2023-04-06T11:37:02;15.63;;;7.35;;
31818;SDS011;18384;48.860;9.188;2023-04-06T11:39:39;11.65;;;7.35;;
31818;SDS011;18384;48.860;9.188;2023-04-06T11:42:26;12.88;;;7.32;;
31818;SDS011;18384;48.860;9.188;2023-04-06T11:44:58;11.70;;;6.68;;
31818;SDS011;18384;48.860;9.188;2023-04-06T11:47:29;12.80;;;7.35;;
31818;SDS011;18384;48.860;9.188;2023-04-06T11:50:10;11.68;;;7.05;;
31818;SDS011;18384;48.860;9.188;2023-04-06T11:52:38;16.87;;;7.00;;
31818;SDS011;18384;48.860;9.188;2023-04-06T11:55:10;10.25;;;6.62;;
31818;SDS011;18384;48.860;9.188;2023-04-06T11:57:41;10.93;;;6.97;;
31818;SDS011;18384;48.860;9.188;2023-04-06T12:00:11;12.55;;;6.30;;
31818;SDS011;18384;48.860;9.188;2023-04-06T12:02:38;12.48;;;6.70;;
31818;SDS011;18384;48.860;9.188;2023-04-06T12:05:05;12.65;;;6.32;;
31818;SDS011;18384;48.860;9.188;2023-04-06T12:07:33;9.93;;;6.07;;
31818;SDS011;18384;48.860;9.188;2023-04-06T12:12:27;11.45;;;6.12;;
31818;SDS011;18384;48.860;9.188;2023-04-06T12:14:54;11.95;;;6.47;;
31818;SDS011;18384;48.860;9.188;2023-04-06T12:17:21;11.02;;;6.85;;
31818;SDS011;18384;48.860;9.188;2023-04-06T12:19:47;11.98;;;6.18;;
31818;SDS011;18384;48.860;9.188;2023-04-06T12:22:13;8.68;;;6.22;;
31818;SDS011;18384;48.860;9.188;2023-04-06T12:24:39;12.32;;;6.62;;
31818;SDS011;18384;48.860;9.188;2023-04-06T12:27:06;11.02;;;6.85;;
31818;SDS011;18384;48.860;9.188;2023-04-06T12:29:33;12.30;;;6.45;;
31818;SDS011;18384;48.860;9.188;2023-04-06T12:31:59;15.25;;;6.70;;
31818;SDS011;18384;48.860;9.188;2023-04-06T12:34:26;16.33;;;6.20;;
31818;SDS011;18384;48.860;9.188;2023-04-06T12:36:52;17.15;;;5.85;;
31818;SDS011;18384;48.860;9.188;2023-04-06T12:39:19;12.68;;;6.28;;
31818;SDS011;18384;48.860;9.188;2023-04-06T12:41:46;11.12;;;5.90;;
31818;SDS011;18384;48.860;9.188;2023-04-06T12:44:12;12.05;;;6.53;;
31818;SDS011;18384;48.860;9.188;2023-04-06T12:46:38;10.57;;;6.10;;
31818;SDS011;18384;48.860;9.188;2023-04-06T12:49:05;12.60;;;6.20;;
31818;SDS011;18384;48.860;9.188;2023-04-06T12:53:58;10.93;;;5.93;;
31818;SDS011;18384;48.860;9.188;2023-04-06T12:56:24;10.73;;;5.72;;
31818;SDS011;18384;48.860;9.188;2023-04-06T12:58:50;12.82;;;6.53;;
31818;SDS011;18384;48.860;9.188;2023-04-06T13:01:18;13.25;;;6.40;;
31818;SDS011;18384;48.860;9.188;2023-04-06T13:03:44;11.88;;;5.57;;
31818;SDS011;18384;48.860;9.188;2023-04-06T13:06:11;12.68;;;5.55;;
31818;SDS011;18384;48.860;9.188;2023-04-06T13:08:38;11.18;;;6.32;;
31818;SDS011;18384;48.860;9.188;2023-04-06T13:11:04;12.07;;;7.22;;
31818;SDS011;18384;48.860;9.188;2023-04-06T13:13:33;10.43;;;5.18;;
31818;SDS011;18384;48.860;9.188;2023-04-06T13:16:06;12.95;;;5.75;;
31818;SDS011;18384;48.860;9.188;2023-04-06T13:18:33;12.00;;;5.70;;
31818;SDS011;18384;48.860;9.188;2023-04-06T13:21:01;24.35;;;6.05;;
31818;SDS011;18384;48.860;9.188;2023-04-06T13:23:28;9.45;;;5.90;;
31818;SDS011;18384;48.860;9.188;2023-04-06T13:25:57;11.60;;;6.85;;
31818;SDS011;18384;48.860;9.188;2023-04-06T13:28:28;12.48;;;5.80;;
31818;SDS011;18384;48.860;9.188;2023-04-06T13:30:55;12.50;;;6.40;;
31818;SDS011;18384;48.860;9.188;2023-04-06T13:33:23;9.20;;;6.20;;
31818;SDS011;18384;48.860;9.188;2023-04-06T13:35:49;10.45;;;5.22;;
31818;SDS011;18384;48.860;9.188;2023-04-06T13:38:16;9.98;;;6.00;;
31818;SDS011;18384;48.860;9.188;2023-04-06T13:40:42;11.80;;;5.30;;
31818;SDS011;18384;48.860;9.188;2023-04-06T13:43:08;9.80;;;5.35;;
31818;SDS011;18384;48.860;9.188;2023-04-06T13:48:00;10.07;;;5.45;;
31818;SDS011;18384;48.860;9.188;2023-04-06T13:50:27;10.63;;;5.03;;
31818;SDS011;18384;48.860;9.188;2023-04-06T13:52:53;13.65;;;4.97;;
31818;SDS011;18384;48.860;9.188;2023-04-06T13:55:20;10.82;;;6.12;;
31818;SDS011;18384;48.860;9.188;2023-04-06T13:57:49;12.20;;;5.32;;
31818;SDS011;18384;48.860;9.188;2023-04-06T14:00:16;12.10;;;6.22;;
31818;SDS011;18384;48.860;9.188;2023-04-06T14:02:43;11.93;;;7.28;;
31818;SDS011;18384;48.860;9.188;2023-04-06T14:05:09;10.55;;;6.20;;
31818;SDS011;18384;48.860;9.188;2023-04-06T14:07:36;8.65;;;5.65;;
31818;SDS011;18384;48.860;9.188;2023-04-06T14:10:02;16.83;;;6.68;;
31818;SDS011;18384;48.860;9.188;2023-04-06T14:12:29;8.85;;;6.07;;
31818;SDS011;18384;48.860;9.188;2023-04-06T14:14:56;10.70;;;5.70;;
31818;SDS011;18384;48.860;9.188;2023-04-06T14:17:22;12.57;;;5.90;;
31818;SDS011;18384;48.860;9.188;2023-04-06T14:19:48;9.52;;;5.30;;
31818;SDS011;18384;48.860;9.188;2023-04-06T14:22:15;15.15;;;5.37;;
31818;SDS011;18384;48.860;9.188;2023-04-06T14:24:42;11.65;;;5.50;;
31818;SDS011;18384;48.860;9.188;2023-04-06T14:27:08;9.55;;;5.40;;
31818;SDS011;18384;48.860;9.188;2023-04-06T14:29:35;11.45;;;5.50;;
31818;SDS011;18384;48.860;9.188;2023-04-06T14:32:01;9.00;;;5.82;;
31818;SDS011;18384;48.860;9.188;2023-04-06T14:34:27;9.45;;;5.47;;
31818;SDS011;18384;48.860;9.188;2023-04-06T14:39:20;14.03;;;5.90;;
31818;SDS011;18384;48.860;9.188;2023-04-06T14:41:46;8.43;;;5.50;;
31818;SDS011;18384;48.860;9.188;2023-04-06T14:44:13;13.73;;;5.68;;
31818;SDS011;18384;48.860;9.188;2023-04-06T14:46:41;9.70;;;5.43;;
31818;SDS011;18384;48.860;9.188;2023-04-06T14:49:07;12.48;;;5.82;;
31818;SDS011;18384;48.860;9.188;2023-04-06T14:51:36;13.80;;;5.45;;
31818;SDS011;18384;48.860;9.188;2023-04-06T14:54:02;10.57;;;5.78;;
31818;SDS011;18384;48.860;9.188;2023-04-06T14:58:57;12.25;;;5.50;;
31818;SDS011;18384;48.860;9.188;2023-04-06T15:01:26;11.98;;;5.90;;
31818;SDS011;18384;48.860;9.188;2023-04-06T15:03:53;12.15;;;6.03;;
31818;SDS011;18384;48.860;9.188;2023-04-06T15:06:19;12.32;;;5.57;;
31818;SDS011;18384;48.860;9.188;2023-04-06T15:08:46;12.75;;;5.57;;
31818;SDS011;18384;48.860;9.188;2023-04-06T15:11:13;13.77;;;5.72;;
31818;SDS011;18384;48.860;9.188;2023-04-06T15:13:39;11.05;;;6.30;;
31818;SDS011;18384;48.860;9.188;2023-04-06T15:16:06;10.25;;;5.07;;
31818;SDS011;18384;48.860;9.188;2023-04-06T15:18:33;11.20;;;5.78;;
31818;SDS011;18384;48.860;9.188;2023-04-06T15:21:00;24.05;;;6.72;;
31818;SDS011;18384;48.860;9.188;2023-04-06T15:25:54;11.63;;;5.93;;
31818;SDS011;18384;48.860;9.188;2023-04-06T15:28:21;10.38;;;5.97;;
31818;SDS011;18384;48.860;9.188;2023-04-06T15:30:47;12.90;;;6.22;;